createdAt,value
2019-02-06T00:00:26.980Z,95.8
2019-02-06T00:01:15.558Z,95.8
2019-02-06T00:02:15.846Z,95.8
2019-02-06T00:03:15.385Z,95.8
2019-02-06T00:04:15.779Z,95.9
2019-02-06T00:05:16.144Z,95.9
2019-02-06T00:06:15.712Z,96.0
2019-02-06T00:07:15.027Z,95.9
2019-02-06T00:08:15.315Z,96.0
2019-02-06T00:09:15.608Z,96.1
2019-02-06T00:10:14.932Z,96.2
2019-02-06T00:11:14.954Z,96.2
2019-02-06T00:12:15.489Z,96.1
2019-02-06T00:13:14.922Z,96.1
2019-02-06T00:14:15.233Z,96.1
2019-02-06T00:15:15.550Z,96.2
2019-02-06T00:16:15.919Z,96.2
2019-02-06T00:17:15.223Z,96.1
2019-02-06T00:18:15.644Z,95.8
2019-02-06T00:19:14.978Z,95.8
2019-02-06T00:20:15.292Z,95.8
2019-02-06T00:21:15.351Z,95.8
2019-02-06T00:22:15.628Z,95.9
2019-02-06T00:23:14.905Z,95.8
2019-02-06T00:24:15.180Z,95.9
2019-02-06T00:25:15.452Z,96.0
2019-02-06T00:26:15.726Z,96.0
2019-02-06T00:27:15.163Z,95.9
2019-02-06T00:28:15.719Z,96.0
2019-02-06T00:29:15.014Z,96.0
2019-02-06T00:30:15.315Z,96.2
2019-02-06T00:31:15.358Z,96.1
2019-02-06T00:32:15.634Z,96.1
2019-02-06T00:33:14.926Z,96.1
2019-02-06T00:34:15.204Z,96.0
2019-02-06T00:35:26.230Z,96.2
2019-02-06T00:36:15.538Z,96.2
2019-02-06T00:37:15.822Z,96.1
2019-02-06T00:38:15.108Z,96.2
2019-02-06T00:39:15.396Z,96.2
2019-02-06T00:40:15.690Z,96.2
2019-02-06T00:41:14.923Z,96.1
2019-02-06T00:42:15.196Z,96.1
2019-02-06T00:43:15.789Z,96.3
2019-02-06T00:44:15.389Z,96.4
2019-02-06T00:45:15.668Z,96.2
2019-02-06T00:46:14.937Z,96.2
2019-02-06T00:47:15.221Z,96.1
2019-02-06T00:48:15.504Z,96.1
2019-02-06T00:49:15.790Z,96.2
2019-02-06T00:50:15.078Z,96.1
2019-02-06T00:51:15.450Z,96.0
2019-02-06T00:52:15.050Z,96.2
2019-02-06T00:53:15.323Z,96.0
2019-02-06T00:54:15.598Z,95.9
2019-02-06T00:55:14.874Z,95.9
2019-02-06T00:56:15.152Z,95.9
2019-02-06T00:57:15.572Z,95.8
2019-02-06T00:58:15.904Z,95.8
2019-02-06T00:59:15.294Z,95.9
2019-02-06T01:00:15.575Z,96.1
2019-02-06T01:01:15.592Z,96.0
2019-02-06T01:02:14.873Z,96.0
2019-02-06T01:03:15.247Z,96.1
2019-02-06T01:04:15.519Z,96.2
2019-02-06T01:05:15.816Z,96.2
2019-02-06T01:06:15.417Z,96.2
2019-02-06T01:07:14.952Z,96.2
2019-02-06T01:08:15.232Z,96.2
2019-02-06T01:09:15.518Z,96.3
2019-02-06T01:10:15.807Z,96.2
2019-02-06T01:11:15.843Z,96.3
2019-02-06T01:12:15.138Z,96.2
2019-02-06T01:13:15.455Z,96.3
2019-02-06T01:14:15.732Z,96.2
2019-02-06T01:15:15.024Z,96.2
2019-02-06T01:16:15.303Z,96.3
2019-02-06T01:17:15.592Z,96.5
2019-02-06T01:18:15.880Z,96.5
2019-02-06T01:19:15.158Z,96.4
2019-02-06T01:20:15.438Z,96.4
2019-02-06T01:21:15.703Z,96.5
2019-02-06T01:22:15.302Z,96.5
2019-02-06T01:23:16.572Z,96.5
2019-02-06T01:24:15.866Z,96.5
2019-02-06T01:25:15.161Z,96.5
2019-02-06T01:26:15.429Z,96.5
2019-02-06T01:27:15.710Z,96.5
2019-02-06T01:28:14.986Z,96.4
2019-02-06T01:29:15.264Z,96.5
2019-02-06T01:30:15.550Z,96.6
2019-02-06T01:31:15.600Z,96.6
2019-02-06T01:32:14.859Z,96.5
2019-02-06T01:33:15.128Z,96.4
2019-02-06T01:34:15.404Z,96.4
2019-02-06T01:35:15.694Z,96.3
2019-02-06T01:36:15.141Z,96.5
2019-02-06T01:37:15.758Z,96.5
2019-02-06T01:38:15.036Z,96.5
2019-02-06T01:39:15.312Z,96.6
2019-02-06T01:40:15.596Z,96.6
2019-02-06T01:41:15.763Z,96.5
2019-02-06T01:42:15.030Z,96.5
2019-02-06T01:43:15.312Z,96.6
2019-02-06T01:44:15.592Z,96.7
2019-02-06T01:45:14.857Z,96.7
2019-02-06T01:46:15.141Z,96.5
2019-02-06T01:47:15.409Z,96.5
2019-02-06T01:48:15.673Z,96.7
2019-02-06T01:49:14.941Z,96.5
2019-02-06T01:50:15.226Z,96.5
2019-02-06T01:51:15.623Z,96.6
2019-02-06T01:52:15.167Z,96.7
2019-02-06T01:53:15.452Z,96.5
2019-02-06T01:54:15.747Z,96.5
2019-02-06T01:55:15.024Z,96.7
2019-02-06T01:56:15.319Z,96.7
2019-02-06T01:57:15.603Z,96.5
2019-02-06T01:58:14.889Z,96.7
2019-02-06T01:59:15.553Z,96.8
2019-02-06T02:00:15.172Z,96.7
2019-02-06T02:01:15.200Z,96.8
2019-02-06T02:02:15.480Z,96.8
2019-02-06T02:03:15.747Z,96.8
2019-02-06T02:04:15.022Z,96.8
2019-02-06T02:05:15.305Z,96.7
2019-02-06T02:06:15.860Z,96.7
2019-02-06T02:07:15.303Z,96.6
2019-02-06T02:08:15.573Z,96.7
2019-02-06T02:09:15.865Z,96.8
2019-02-06T02:10:15.158Z,96.8
2019-02-06T02:11:15.205Z,96.8
2019-02-06T02:12:15.477Z,96.8
2019-02-06T02:13:15.765Z,96.9
2019-02-06T02:14:15.350Z,96.8
2019-02-06T02:15:14.912Z,96.8
2019-02-06T02:16:15.186Z,96.8
2019-02-06T02:17:15.470Z,96.7
2019-02-06T02:18:15.734Z,96.6
2019-02-06T02:19:15.128Z,96.8
2019-02-06T02:20:15.418Z,96.7
2019-02-06T02:21:15.458Z,96.8
2019-02-06T02:22:15.735Z,96.6
2019-02-06T02:23:15.011Z,96.7
2019-02-06T02:24:15.285Z,96.6
2019-02-06T02:25:15.570Z,96.6
2019-02-06T02:26:15.865Z,96.5
2019-02-06T02:27:15.151Z,96.5
2019-02-06T02:28:15.416Z,96.5
2019-02-06T02:29:15.922Z,96.5
2019-02-06T02:30:15.509Z,96.5
2019-02-06T02:31:15.519Z,96.5
2019-02-06T02:32:15.807Z,96.5
2019-02-06T02:33:15.095Z,96.7
2019-02-06T02:34:15.376Z,96.7
2019-02-06T02:35:15.673Z,96.6
2019-02-06T02:36:16.734Z,96.6
2019-02-06T02:37:15.352Z,96.5
2019-02-06T02:38:14.881Z,96.5
2019-02-06T02:39:15.158Z,96.7
2019-02-06T02:40:15.470Z,96.7
2019-02-06T02:41:15.490Z,96.6
2019-02-06T02:42:15.779Z,96.7
2019-02-06T02:43:15.054Z,96.8
2019-02-06T02:44:15.324Z,96.8
2019-02-06T02:45:15.997Z,96.8
2019-02-06T02:46:15.636Z,96.7
2019-02-06T02:47:14.938Z,96.8
2019-02-06T02:48:15.220Z,96.9
2019-02-06T02:49:15.503Z,96.9
2019-02-06T02:50:16.019Z,96.7
2019-02-06T02:51:15.848Z,96.6
2019-02-06T02:52:15.379Z,96.5
2019-02-06T02:53:15.850Z,96.5
2019-02-06T02:54:15.139Z,96.3
2019-02-06T02:55:15.423Z,96.3
2019-02-06T02:56:15.723Z,96.3
2019-02-06T02:57:15.003Z,96.3
2019-02-06T02:58:15.283Z,96.3
2019-02-06T02:59:15.567Z,96.3
2019-02-06T03:00:16.199Z,96.2
2019-02-06T03:01:14.894Z,96.2
2019-02-06T03:02:15.179Z,96.1
2019-02-06T03:03:15.467Z,96.2
2019-02-06T03:04:15.751Z,96.2
2019-02-06T03:05:15.050Z,96.2
2019-02-06T03:06:28.604Z,96.1
2019-02-06T03:07:14.977Z,96.1
2019-02-06T03:08:15.611Z,96.2
2019-02-06T03:09:15.165Z,96.2
2019-02-06T03:10:15.476Z,96.2
2019-02-06T03:11:15.501Z,96.1
2019-02-06T03:12:15.775Z,96.2
2019-02-06T03:13:15.062Z,96.2
2019-02-06T03:14:15.360Z,96.1
2019-02-06T03:15:15.662Z,96.1
2019-02-06T03:16:14.940Z,96.2
2019-02-06T03:17:15.242Z,96.2
2019-02-06T03:18:15.503Z,96.2
2019-02-06T03:19:15.782Z,96.2
2019-02-06T03:20:15.069Z,96.2
2019-02-06T03:21:15.143Z,96.2
2019-02-06T03:22:15.425Z,96.1
2019-02-06T03:23:16.003Z,96.0
2019-02-06T03:24:15.576Z,96.0
2019-02-06T03:25:15.865Z,96.0
2019-02-06T03:26:15.163Z,96.0
2019-02-06T03:27:15.441Z,96.3
2019-02-06T03:28:15.732Z,96.3
2019-02-06T03:29:15.013Z,96.2
2019-02-06T03:30:15.743Z,96.2
2019-02-06T03:31:15.683Z,96.1
2019-02-06T03:32:15.128Z,96.2
2019-02-06T03:33:15.433Z,96.2
2019-02-06T03:34:15.697Z,96.1
2019-02-06T03:35:14.966Z,96.1
2019-02-06T03:36:15.248Z,95.9
2019-02-06T03:37:15.529Z,95.9
2019-02-06T03:38:15.536Z,96.0
2019-02-06T03:39:15.819Z,95.8
2019-02-06T03:40:15.111Z,95.9
2019-02-06T03:41:15.158Z,95.9
2019-02-06T03:42:15.444Z,96.1
2019-02-06T03:43:15.721Z,96.1
2019-02-06T03:44:15.010Z,96.1
2019-02-06T03:45:15.317Z,96.2
2019-02-06T03:46:15.771Z,96.2
2019-02-06T03:47:15.252Z,96.2
2019-02-06T03:48:15.562Z,96.3
2019-02-06T03:49:15.847Z,96.2
2019-02-06T03:50:15.171Z,96.1
2019-02-06T03:51:15.195Z,96.2
2019-02-06T03:52:15.486Z,96.2
2019-02-06T03:53:15.777Z,96.3
2019-02-06T03:54:15.048Z,96.3
2019-02-06T03:55:15.348Z,96.3
2019-02-06T03:56:15.634Z,96.3
2019-02-06T03:57:14.913Z,96.4
2019-02-06T03:58:15.199Z,96.4
2019-02-06T03:59:15.475Z,96.3
2019-02-06T04:00:15.769Z,96.3
2019-02-06T04:01:16.044Z,96.4
2019-02-06T04:02:15.933Z,96.4
2019-02-06T04:03:15.217Z,96.6
2019-02-06T04:04:15.487Z,96.5
2019-02-06T04:05:15.779Z,96.3
2019-02-06T04:06:15.058Z,96.3
2019-02-06T04:07:15.345Z,96.3
2019-02-06T04:08:15.717Z,96.3
2019-02-06T04:09:14.986Z,96.3
2019-02-06T04:10:15.286Z,96.4
2019-02-06T04:11:15.316Z,96.4
2019-02-06T04:12:15.599Z,96.4
2019-02-06T04:13:14.875Z,96.4
2019-02-06T04:14:15.157Z,96.7
2019-02-06T04:15:15.453Z,96.5
2019-02-06T04:16:15.867Z,96.4
2019-02-06T04:17:15.153Z,96.5
2019-02-06T04:18:15.440Z,96.4
2019-02-06T04:19:15.709Z,96.3
2019-02-06T04:20:15.006Z,96.3
2019-02-06T04:21:15.040Z,96.3
2019-02-06T04:22:15.318Z,96.3
2019-02-06T04:23:15.608Z,96.3
2019-02-06T04:24:15.190Z,96.5
2019-02-06T04:25:15.659Z,96.4
2019-02-06T04:26:14.947Z,96.4
2019-02-06T04:27:15.232Z,96.4
2019-02-06T04:28:15.521Z,96.5
2019-02-06T04:29:15.796Z,96.5
2019-02-06T04:30:15.116Z,96.4
2019-02-06T04:31:15.128Z,96.3
2019-02-06T04:32:15.746Z,96.4
2019-02-06T04:33:15.313Z,96.4
2019-02-06T04:34:15.584Z,96.2
2019-02-06T04:35:15.882Z,96.3
2019-02-06T04:36:15.164Z,96.3
2019-02-06T04:37:15.455Z,96.2
2019-02-06T04:38:15.999Z,96.3
2019-02-06T04:39:15.286Z,96.2
2019-02-06T04:40:15.573Z,96.2
2019-02-06T04:41:15.606Z,96.3
2019-02-06T04:42:14.901Z,96.3
2019-02-06T04:43:15.248Z,96.3
2019-02-06T04:44:15.524Z,96.4
2019-02-06T04:45:15.819Z,96.2
2019-02-06T04:46:15.095Z,96.0
2019-02-06T04:47:15.688Z,96.0
2019-02-06T04:48:15.235Z,96.0
2019-02-06T04:49:15.500Z,95.9
2019-02-06T04:50:15.789Z,95.7
2019-02-06T04:51:15.837Z,95.7
2019-02-06T04:52:15.114Z,95.7
2019-02-06T04:53:15.423Z,95.6
2019-02-06T04:54:15.728Z,95.5
2019-02-06T04:55:15.004Z,95.6
2019-02-06T04:56:15.283Z,95.8
2019-02-06T04:57:15.560Z,95.7
2019-02-06T04:58:15.845Z,95.7
2019-02-06T04:59:15.123Z,95.5
2019-02-06T05:00:15.413Z,95.5
2019-02-06T05:01:15.451Z,95.5
2019-02-06T05:02:15.931Z,95.3
2019-02-06T05:03:15.443Z,95.5
2019-02-06T05:04:15.727Z,95.7
2019-02-06T05:05:15.000Z,95.7
2019-02-06T05:06:15.283Z,95.7
2019-02-06T05:07:19.822Z,95.7
2019-02-06T05:08:15.148Z,95.7
2019-02-06T05:09:15.426Z,95.8
2019-02-06T05:10:16.077Z,95.8
2019-02-06T05:11:15.748Z,95.8
2019-02-06T05:12:15.023Z,95.8
2019-02-06T05:13:15.296Z,96.0
2019-02-06T05:14:15.566Z,96.2
2019-02-06T05:15:15.878Z,96.2
2019-02-06T05:16:15.173Z,96.1
2019-02-06T05:17:15.643Z,96.1
2019-02-06T05:18:15.211Z,96.1
2019-02-06T05:19:15.500Z,96.0
2019-02-06T05:20:15.796Z,96.2
2019-02-06T05:21:15.862Z,96.3
2019-02-06T05:22:15.126Z,96.3
2019-02-06T05:23:15.402Z,96.3
2019-02-06T05:24:15.691Z,96.2
2019-02-06T05:25:15.202Z,96.2
2019-02-06T05:26:15.784Z,96.2
2019-02-06T05:27:15.063Z,96.2
2019-02-06T05:28:18.399Z,96.2
2019-02-06T05:29:15.712Z,96.1
2019-02-06T05:30:14.994Z,96.2
2019-02-06T05:31:15.068Z,96.2
2019-02-06T05:32:15.353Z,96.1
2019-02-06T05:33:15.640Z,96.2
2019-02-06T05:34:14.930Z,96.0
2019-02-06T05:35:15.235Z,96.1
2019-02-06T05:36:15.524Z,96.0
2019-02-06T05:37:15.786Z,96.0
2019-02-06T05:38:15.067Z,96.0
2019-02-06T05:39:15.369Z,96.0
2019-02-06T05:40:16.064Z,96.2
2019-02-06T05:41:15.699Z,96.1
2019-02-06T05:42:14.989Z,96.1
2019-02-06T05:43:15.265Z,95.9
2019-02-06T05:44:15.543Z,95.8
2019-02-06T05:45:15.821Z,95.9
2019-02-06T05:46:15.098Z,96.0
2019-02-06T05:47:15.390Z,95.8
2019-02-06T05:48:15.670Z,95.9
2019-02-06T05:49:14.962Z,95.8
2019-02-06T05:50:15.256Z,95.8
2019-02-06T05:51:15.306Z,95.8
2019-02-06T05:52:15.601Z,95.8
2019-02-06T05:53:14.866Z,95.7
2019-02-06T05:54:15.152Z,95.6
2019-02-06T05:55:15.771Z,95.6
2019-02-06T05:56:15.416Z,95.4
2019-02-06T05:57:15.708Z,95.3
2019-02-06T05:58:15.043Z,95.4
2019-02-06T05:59:15.324Z,95.5
2019-02-06T06:00:15.604Z,95.6
2019-02-06T06:01:15.652Z,95.7
2019-02-06T06:02:15.218Z,95.6
2019-02-06T06:03:15.885Z,95.3
2019-02-06T06:04:15.246Z,95.3
2019-02-06T06:05:15.540Z,95.3
2019-02-06T06:06:15.830Z,95.4
2019-02-06T06:07:15.109Z,95.3
2019-02-06T06:08:15.385Z,95.2
2019-02-06T06:09:15.668Z,95.2
2019-02-06T06:10:15.305Z,95.2
2019-02-06T06:11:15.004Z,95.2
2019-02-06T06:12:15.278Z,95.2
2019-02-06T06:13:18.726Z,95.1
2019-02-06T06:14:15.053Z,95.2
2019-02-06T06:15:15.360Z,95.2
2019-02-06T06:16:15.640Z,95.2
2019-02-06T06:17:15.217Z,95.2
2019-02-06T06:18:15.721Z,95.2
2019-02-06T06:19:15.136Z,95.0
2019-02-06T06:20:15.440Z,95.0
2019-02-06T06:21:15.482Z,95.0
2019-02-06T06:22:15.758Z,95.0
2019-02-06T06:23:15.027Z,95.0
2019-02-06T06:24:15.302Z,95.0
2019-02-06T06:25:15.907Z,95.2
2019-02-06T06:26:15.545Z,95.0
2019-02-06T06:27:15.822Z,95.0
2019-02-06T06:28:15.159Z,95.0
2019-02-06T06:29:15.432Z,94.9
2019-02-06T06:30:16.250Z,95.0
2019-02-06T06:31:15.766Z,95.0
2019-02-06T06:32:15.391Z,95.1
2019-02-06T06:33:14.993Z,94.8
2019-02-06T06:34:15.274Z,94.7
2019-02-06T06:35:15.581Z,94.7
2019-02-06T06:36:14.893Z,94.6
2019-02-06T06:37:15.174Z,94.7
2019-02-06T06:38:15.472Z,94.6
2019-02-06T06:39:15.762Z,94.8
2019-02-06T06:40:15.379Z,94.8
2019-02-06T06:41:15.136Z,94.5
2019-02-06T06:42:15.413Z,94.7
2019-02-06T06:43:16.689Z,94.7
2019-02-06T06:44:15.006Z,94.7
2019-02-06T06:45:15.291Z,94.6
2019-02-06T06:46:15.568Z,94.5
2019-02-06T06:47:15.841Z,94.5
2019-02-06T06:48:15.119Z,94.4
2019-02-06T06:49:15.395Z,94.3
2019-02-06T06:50:15.697Z,94.5
2019-02-06T06:51:15.752Z,94.6
2019-02-06T06:52:15.026Z,94.3
2019-02-06T06:53:15.306Z,94.2
2019-02-06T06:54:15.570Z,94.0
2019-02-06T06:55:16.186Z,94.2
2019-02-06T06:56:15.784Z,94.3
2019-02-06T06:57:15.077Z,94.3
2019-02-06T06:58:15.354Z,94.2
2019-02-06T06:59:15.621Z,94.4
2019-02-06T07:00:14.935Z,94.2
2019-02-06T07:01:14.954Z,94.1
2019-02-06T07:02:15.238Z,94.3
2019-02-06T07:03:15.878Z,94.3
2019-02-06T07:04:15.520Z,94.2
2019-02-06T07:05:15.788Z,94.3
2019-02-06T07:06:15.065Z,94.2
2019-02-06T07:07:15.349Z,94.1
2019-02-06T07:08:15.622Z,93.9
2019-02-06T07:09:14.904Z,93.8
2019-02-06T07:10:15.447Z,93.7
2019-02-06T07:11:15.231Z,93.8
2019-02-06T07:12:15.509Z,93.7
2019-02-06T07:13:15.798Z,93.7
2019-02-06T07:14:15.078Z,93.8
2019-02-06T07:15:15.364Z,93.7
2019-02-06T07:16:15.643Z,93.8
2019-02-06T07:17:14.915Z,93.9
2019-02-06T07:18:15.432Z,94.1
2019-02-06T07:19:14.989Z,93.8
2019-02-06T07:20:15.266Z,93.8
2019-02-06T07:21:15.327Z,93.7
2019-02-06T07:22:15.603Z,93.5
2019-02-06T07:23:14.873Z,93.6
2019-02-06T07:24:15.161Z,93.6
2019-02-06T07:25:15.456Z,93.6
2019-02-06T07:26:16.052Z,93.8
2019-02-06T07:27:15.704Z,93.7
2019-02-06T07:28:15.071Z,93.3
2019-02-06T07:29:15.353Z,92.9
2019-02-06T07:30:15.669Z,93.2
2019-02-06T07:31:15.696Z,93.2
2019-02-06T07:32:14.975Z,93.1
2019-02-06T07:33:15.243Z,92.9
2019-02-06T07:34:15.521Z,93.2
2019-02-06T07:35:15.820Z,93.3
2019-02-06T07:36:15.090Z,93.1
2019-02-06T07:37:15.373Z,93.0
2019-02-06T07:38:24.639Z,93.0
2019-02-06T07:39:14.961Z,93.0
2019-02-06T07:40:15.243Z,93.0
2019-02-06T07:41:15.753Z,93.0
2019-02-06T07:42:15.309Z,93.0
2019-02-06T07:43:15.594Z,92.8
2019-02-06T07:44:14.866Z,92.8
2019-02-06T07:45:15.143Z,93.1
2019-02-06T07:46:15.435Z,92.8
2019-02-06T07:47:15.706Z,92.9
2019-02-06T07:48:14.981Z,92.7
2019-02-06T07:49:15.252Z,92.4
2019-02-06T07:50:15.521Z,92.5
2019-02-06T07:51:15.575Z,92.4
2019-02-06T07:52:14.868Z,92.5
2019-02-06T07:53:15.135Z,92.4
2019-02-06T07:54:15.422Z,92.1
2019-02-06T07:55:15.700Z,92.0
2019-02-06T07:56:15.266Z,92.0
2019-02-06T07:57:15.810Z,92.0
2019-02-06T07:58:15.080Z,92.2
2019-02-06T07:59:15.355Z,92.3
2019-02-06T08:00:15.653Z,92.4
2019-02-06T08:01:15.744Z,92.3
2019-02-06T08:02:15.151Z,92.2
2019-02-06T08:03:15.443Z,92.0
2019-02-06T08:04:16.081Z,92.5
2019-02-06T08:05:15.579Z,92.5
2019-02-06T08:06:14.862Z,92.3
2019-02-06T08:07:15.128Z,92.4
2019-02-06T08:08:15.406Z,92.5
2019-02-06T08:09:15.679Z,92.4
2019-02-06T08:10:14.975Z,92.4
2019-02-06T08:11:15.221Z,92.2
2019-02-06T08:12:15.700Z,91.9
2019-02-06T08:13:14.995Z,92.0
2019-02-06T08:14:15.266Z,91.9
2019-02-06T08:15:15.556Z,91.5
2019-02-06T08:16:15.832Z,91.7
2019-02-06T08:17:15.111Z,91.7
2019-02-06T08:18:15.383Z,91.5
2019-02-06T08:19:15.926Z,91.5
2019-02-06T08:20:15.546Z,91.5
2019-02-06T08:21:15.557Z,91.6
2019-02-06T08:22:15.844Z,92.1
2019-02-06T08:23:15.133Z,91.7
2019-02-06T08:24:15.423Z,91.5
2019-02-06T08:25:15.703Z,91.5
2019-02-06T08:26:15.084Z,91.2
2019-02-06T08:27:15.358Z,91.2
2019-02-06T08:28:15.639Z,91.5
2019-02-06T08:29:14.913Z,91.2
2019-02-06T08:30:15.208Z,91.3
2019-02-06T08:31:15.262Z,91.4
2019-02-06T08:32:15.529Z,90.8
2019-02-06T08:33:15.799Z,90.9
2019-02-06T08:34:15.228Z,90.3
2019-02-06T08:35:15.657Z,90.2
2019-02-06T08:36:14.942Z,90.3
2019-02-06T08:37:15.229Z,90.1
2019-02-06T08:38:15.494Z,90.3
2019-02-06T08:39:15.782Z,90.6
2019-02-06T08:40:15.070Z,90.3
2019-02-06T08:41:15.145Z,90.8
2019-02-06T08:42:15.724Z,90.2
2019-02-06T08:43:15.235Z,90.2
2019-02-06T08:44:15.507Z,89.9
2019-02-06T08:45:15.803Z,89.9
2019-02-06T08:46:15.087Z,89.8
2019-02-06T08:47:15.374Z,89.9
2019-02-06T08:48:15.645Z,89.9
2019-02-06T08:49:14.920Z,90.0
2019-02-06T08:50:15.526Z,89.9
2019-02-06T08:51:15.248Z,89.5
2019-02-06T08:52:15.520Z,89.7
2019-02-06T08:53:15.802Z,89.8
2019-02-06T08:54:15.078Z,89.4
2019-02-06T08:55:15.358Z,89.8
2019-02-06T08:56:15.632Z,89.5
2019-02-06T08:57:15.218Z,89.8
2019-02-06T08:58:15.715Z,89.3
2019-02-06T08:59:14.988Z,88.7
2019-02-06T09:00:15.307Z,89.0
2019-02-06T09:01:15.336Z,88.9
2019-02-06T09:02:15.611Z,88.8
2019-02-06T09:03:14.882Z,88.9
2019-02-06T09:04:15.174Z,88.8
2019-02-06T09:05:15.688Z,88.9
2019-02-06T09:06:15.170Z,88.6
2019-02-06T09:07:15.456Z,89.1
2019-02-06T09:08:15.739Z,88.5
2019-02-06T09:09:15.010Z,88.6
2019-02-06T09:10:15.302Z,88.3
2019-02-06T09:11:15.332Z,88.5
2019-02-06T09:12:15.598Z,88.2
2019-02-06T09:13:15.148Z,88.4
2019-02-06T09:14:15.734Z,88.5
2019-02-06T09:15:15.019Z,88.2
2019-02-06T09:16:15.292Z,88.3
2019-02-06T09:17:15.557Z,88.6
2019-02-06T09:18:15.849Z,88.8
2019-02-06T09:19:15.133Z,88.3
2019-02-06T09:20:15.657Z,88.3
2019-02-06T09:21:15.479Z,88.2
2019-02-06T09:22:15.756Z,87.5
2019-02-06T09:23:15.035Z,87.6
2019-02-06T09:24:15.310Z,88.0
2019-02-06T09:25:15.597Z,88.0
2019-02-06T09:26:14.870Z,87.7
2019-02-06T09:27:15.144Z,87.7
2019-02-06T09:28:15.753Z,87.9
2019-02-06T09:29:15.289Z,87.2
2019-02-06T09:30:15.592Z,87.7
2019-02-06T09:31:15.637Z,87.9
2019-02-06T09:32:14.916Z,87.5
2019-02-06T09:33:15.187Z,87.4
2019-02-06T09:34:15.584Z,87.2
2019-02-06T09:35:15.193Z,87.6
2019-02-06T09:36:15.836Z,87.5
2019-02-06T09:37:15.112Z,88.0
2019-02-06T09:38:15.381Z,88.5
2019-02-06T09:39:15.662Z,88.0
2019-02-06T09:40:14.952Z,87.4
2019-02-06T09:41:14.979Z,87.9
2019-02-06T09:42:15.250Z,87.8
2019-02-06T09:43:15.881Z,88.2
2019-02-06T09:44:15.471Z,88.0
2019-02-06T09:45:15.762Z,88.1
2019-02-06T09:46:15.040Z,88.1
2019-02-06T09:47:15.342Z,88.0
2019-02-06T09:48:15.643Z,87.6
2019-02-06T09:49:15.321Z,87.3
2019-02-06T09:50:15.866Z,87.5
2019-02-06T09:51:15.643Z,87.6
2019-02-06T09:52:15.042Z,88.0
2019-02-06T09:53:15.325Z,87.7
2019-02-06T09:54:15.603Z,87.1
2019-02-06T09:55:14.884Z,87.2
2019-02-06T09:56:15.176Z,86.4
2019-02-06T09:57:15.453Z,86.6
2019-02-06T09:58:16.127Z,86.2
2019-02-06T09:59:16.010Z,86.5
2019-02-06T10:00:15.294Z,86.5
2019-02-06T10:01:15.333Z,86.3
2019-02-06T10:02:15.598Z,86.3
2019-02-06T10:03:14.881Z,86.3
2019-02-06T10:04:15.157Z,86.7
2019-02-06T10:05:15.451Z,86.8
2019-02-06T10:06:15.844Z,86.8
2019-02-06T10:07:15.139Z,86.9
2019-02-06T10:08:15.421Z,86.9
2019-02-06T10:09:23.305Z,87.1
2019-02-06T10:10:15.614Z,87.1
2019-02-06T10:11:15.647Z,87.2
2019-02-06T10:12:14.925Z,86.7
2019-02-06T10:13:16.840Z,86.6
2019-02-06T10:14:15.366Z,86.0
2019-02-06T10:15:15.669Z,86.1
2019-02-06T10:16:14.957Z,85.8
2019-02-06T10:17:15.243Z,85.9
2019-02-06T10:18:15.526Z,86.4
2019-02-06T10:19:15.814Z,85.5
2019-02-06T10:20:15.109Z,85.4
2019-02-06T10:21:15.157Z,85.9
2019-02-06T10:22:15.438Z,85.8
2019-02-06T10:23:15.733Z,85.9
2019-02-06T10:24:15.004Z,86.2
2019-02-06T10:25:15.290Z,85.7
2019-02-06T10:26:15.564Z,85.8
2019-02-06T10:27:15.841Z,85.8
2019-02-06T10:28:15.339Z,85.9
2019-02-06T10:29:15.844Z,86.0
2019-02-06T10:30:15.142Z,85.5
2019-02-06T10:31:15.201Z,85.1
2019-02-06T10:32:15.504Z,85.5
2019-02-06T10:33:19.310Z,84.7
2019-02-06T10:34:15.682Z,84.7
2019-02-06T10:35:15.137Z,84.5
2019-02-06T10:36:15.764Z,84.4
2019-02-06T10:37:15.331Z,84.5
2019-02-06T10:38:15.608Z,84.6
2019-02-06T10:39:14.880Z,84.5
2019-02-06T10:40:15.182Z,85.1
2019-02-06T10:41:15.212Z,84.8
2019-02-06T10:42:15.489Z,85.0
2019-02-06T10:43:15.818Z,85.7
2019-02-06T10:44:15.104Z,85.3
2019-02-06T10:45:15.553Z,85.2
2019-02-06T10:46:18.545Z,84.5
2019-02-06T10:47:15.826Z,84.5
2019-02-06T10:48:15.098Z,84.8
2019-02-06T10:49:15.401Z,84.1
2019-02-06T10:50:15.708Z,84.0
2019-02-06T10:51:15.930Z,83.9
2019-02-06T10:52:15.378Z,83.8
2019-02-06T10:53:15.652Z,84.3
2019-02-06T10:54:14.939Z,84.1
2019-02-06T10:55:15.234Z,83.9
2019-02-06T10:56:15.527Z,83.1
2019-02-06T10:57:15.792Z,83.2
2019-02-06T10:58:15.064Z,82.9
2019-02-06T10:59:15.706Z,82.3
2019-02-06T11:00:15.266Z,81.5
2019-02-06T11:01:15.503Z,80.9
2019-02-06T11:02:15.778Z,80.8
2019-02-06T11:03:15.057Z,80.3
2019-02-06T11:04:15.331Z,80.2
2019-02-06T11:05:15.610Z,81.2
2019-02-06T11:06:15.064Z,81.2
2019-02-06T11:07:15.347Z,81.8
2019-02-06T11:08:15.624Z,81.2
2019-02-06T11:09:14.897Z,81.2
2019-02-06T11:10:15.181Z,81.5
2019-02-06T11:11:15.244Z,82.0
2019-02-06T11:12:15.513Z,82.0
2019-02-06T11:13:15.799Z,81.8
2019-02-06T11:14:15.398Z,81.7
2019-02-06T11:15:15.027Z,81.0
2019-02-06T11:16:15.312Z,81.8
2019-02-06T11:17:15.596Z,81.9
2019-02-06T11:18:14.873Z,82.4
2019-02-06T11:19:15.153Z,81.9
2019-02-06T11:20:15.451Z,81.5
2019-02-06T11:21:15.464Z,81.5
2019-02-06T11:22:16.081Z,81.9
2019-02-06T11:23:15.529Z,82.0
2019-02-06T11:24:15.809Z,82.0
2019-02-06T11:25:15.086Z,82.4
2019-02-06T11:26:15.355Z,82.1
2019-02-06T11:27:15.639Z,81.7
2019-02-06T11:28:14.929Z,81.7
2019-02-06T11:29:15.342Z,82.4
2019-02-06T11:30:15.716Z,81.6
2019-02-06T11:31:15.777Z,81.2
2019-02-06T11:32:15.042Z,81.0
2019-02-06T11:33:15.330Z,81.3
2019-02-06T11:34:15.612Z,81.8
2019-02-06T11:35:14.895Z,80.9
2019-02-06T11:36:24.528Z,80.4
2019-02-06T11:37:15.146Z,80.4
2019-02-06T11:38:15.715Z,81.2
2019-02-06T11:39:14.985Z,81.5
2019-02-06T11:40:15.539Z,80.8
2019-02-06T11:41:15.296Z,80.1
2019-02-06T11:42:15.570Z,80.3
2019-02-06T11:43:15.838Z,80.7
2019-02-06T11:44:15.104Z,80.9
2019-02-06T11:45:15.789Z,80.3
2019-02-06T11:46:15.371Z,79.7
2019-02-06T11:47:15.640Z,80.2
2019-02-06T11:48:14.928Z,80.3
2019-02-06T11:49:15.217Z,80.7
2019-02-06T11:50:15.506Z,80.5
2019-02-06T11:51:15.558Z,80.2
2019-02-06T11:52:15.825Z,80.1
2019-02-06T11:53:15.108Z,79.7
2019-02-06T11:54:15.400Z,80.2
2019-02-06T11:55:15.674Z,80.8
2019-02-06T11:56:14.952Z,80.8
2019-02-06T11:57:15.230Z,80.9
2019-02-06T11:58:15.515Z,81.1
2019-02-06T11:59:15.788Z,80.8
2019-02-06T12:00:15.430Z,80.3
2019-02-06T12:01:15.118Z,80.3
2019-02-06T12:02:15.398Z,80.2
2019-02-06T12:03:15.673Z,79.8
2019-02-06T12:04:14.971Z,80.0
2019-02-06T12:05:15.249Z,79.9
2019-02-06T12:06:15.672Z,79.5
2019-02-06T12:07:14.939Z,80.0
2019-02-06T12:08:16.067Z,80.2
2019-02-06T12:09:15.704Z,79.5
2019-02-06T12:10:14.984Z,79.8
2019-02-06T12:11:15.028Z,79.3
2019-02-06T12:12:15.291Z,79.5
2019-02-06T12:13:15.563Z,79.3
2019-02-06T12:14:15.846Z,79.6
2019-02-06T12:15:15.444Z,79.4
2019-02-06T12:16:15.217Z,79.7
2019-02-06T12:17:15.502Z,79.8
2019-02-06T12:18:15.781Z,80.0
2019-02-06T12:19:15.058Z,79.7
2019-02-06T12:20:15.346Z,79.3
2019-02-06T12:21:18.265Z,78.8
2019-02-06T12:22:15.556Z,78.8
2019-02-06T12:23:16.146Z,79.4
2019-02-06T12:24:15.794Z,79.5
2019-02-06T12:25:15.180Z,79.6
2019-02-06T12:26:15.461Z,79.7
2019-02-06T12:27:15.737Z,79.9
2019-02-06T12:28:15.002Z,79.6
2019-02-06T12:29:15.295Z,79.8
2019-02-06T12:30:15.903Z,79.5
2019-02-06T12:31:15.649Z,79.7
2019-02-06T12:32:14.916Z,79.3
2019-02-06T12:33:15.279Z,79.0
2019-02-06T12:34:15.575Z,79.5
2019-02-06T12:35:14.866Z,79.5
2019-02-06T12:36:16.041Z,79.5
2019-02-06T12:37:15.437Z,79.9
2019-02-06T12:38:16.068Z,80.2
2019-02-06T12:39:15.666Z,80.4
2019-02-06T12:40:22.110Z,79.4
2019-02-06T12:41:15.019Z,79.0
2019-02-06T12:42:15.319Z,79.2
2019-02-06T12:43:15.584Z,80.0
2019-02-06T12:44:15.195Z,80.0
2019-02-06T12:45:15.704Z,79.3
2019-02-06T12:46:14.981Z,79.3
2019-02-06T12:47:15.259Z,79.7
2019-02-06T12:48:15.530Z,79.5
2019-02-06T12:49:15.805Z,79.1
2019-02-06T12:50:15.102Z,79.6
2019-02-06T12:51:15.138Z,79.2
2019-02-06T12:52:15.420Z,79.2
2019-02-06T12:53:15.709Z,78.9
2019-02-06T12:54:14.979Z,78.7
2019-02-06T12:55:15.268Z,78.8
2019-02-06T12:56:15.534Z,79.2
2019-02-06T12:57:15.832Z,79.2
2019-02-06T12:58:15.105Z,78.8
2019-02-06T12:59:15.723Z,79.0
2019-02-06T13:00:15.217Z,78.5
2019-02-06T13:01:15.259Z,78.6
2019-02-06T13:02:15.531Z,78.5
2019-02-06T13:03:15.816Z,78.5
2019-02-06T13:04:15.105Z,79.0
2019-02-06T13:05:15.382Z,78.9
2019-02-06T13:06:15.755Z,78.8
2019-02-06T13:07:15.038Z,78.7
2019-02-06T13:08:17.529Z,78.4
2019-02-06T13:09:15.821Z,78.8
2019-02-06T13:10:15.106Z,78.3
2019-02-06T13:11:15.172Z,78.2
2019-02-06T13:12:15.455Z,78.0
2019-02-06T13:13:15.756Z,78.2
2019-02-06T13:14:15.319Z,78.2
2019-02-06T13:15:14.882Z,78.3
2019-02-06T13:16:15.175Z,78.7
2019-02-06T13:17:15.452Z,78.1
2019-02-06T13:18:15.840Z,77.9